sensor_id;sensor_type;location;lat;lon;timestamp;P1;durP1;ratioP1;P2;durP2;ratioP2
23747;SDS011;12054;53.662;10.126;2023-03-23T00:01:31;10.25;;;6.15;;
23747;SDS011;12054;53.662;10.126;2023-03-23T00:04:01;12.05;;;6.65;;
23747;SDS011;12054;53.662;10.126;2023-03-23T00:06:27;8.88;;;6.95;;
23747;SDS011;12054;53.662;10.126;2023-03-23T00:08:57;10.23;;;6.55;;
23747;SDS011;12054;53.662;10.126;2023-03-23T00:11:25;11.43;;;6.55;;
23747;SDS011;12054;53.662;10.126;2023-03-23T00:13:54;10.70;;;7.25;;
23747;SDS011;12054;53.662;10.126;2023-03-23T00:16:23;10.63;;;7.55;;
23747;SDS011;12054;53.662;10.126;2023-03-23T00:19:01;12.48;;;7.47;;
23747;SDS011;12054;53.662;10.126;2023-03-23T00:21:29;11.68;;;7.35;;
23747;SDS011;12054;53.662;10.126;2023-03-23T00:24:07;12.95;;;8.00;;
23747;SDS011;12054;53.662;10.126;2023-03-23T00:26:36;11.82;;;7.07;;
23747;SDS011;12054;53.662;10.126;2023-03-23T00:29:05;15.07;;;8.40;;
23747;SDS011;12054;53.662;10.126;2023-03-23T00:31:38;11.55;;;8.43;;
23747;SDS011;12054;53.662;10.126;2023-03-23T00:34:04;15.43;;;8.93;;
23747;SDS011;12054;53.662;10.126;2023-03-23T00:36:30;12.55;;;8.30;;
23747;SDS011;12054;53.662;10.126;2023-03-23T00:38:59;13.68;;;9.20;;
23747;SDS011;12054;53.662;10.126;2023-03-23T00:41:28;13.57;;;9.38;;
23747;SDS011;12054;53.662;10.126;2023-03-23T00:43:55;13.02;;;8.82;;
23747;SDS011;12054;53.662;10.126;2023-03-23T00:46:22;12.60;;;9.48;;
23747;SDS011;12054;53.662;10.126;2023-03-23T00:48:49;13.60;;;8.95;;
23747;SDS011;12054;53.662;10.126;2023-03-23T00:51:15;11.98;;;8.88;;
23747;SDS011;12054;53.662;10.126;2023-03-23T00:53:41;14.70;;;9.50;;
23747;SDS011;12054;53.662;10.126;2023-03-23T00:56:07;15.77;;;10.05;;
23747;SDS011;12054;53.662;10.126;2023-03-23T00:58:34;13.23;;;9.50;;
23747;SDS011;12054;53.662;10.126;2023-03-23T01:01:00;14.02;;;9.65;;
23747;SDS011;12054;53.662;10.126;2023-03-23T01:03:25;12.82;;;9.65;;
23747;SDS011;12054;53.662;10.126;2023-03-23T01:05:53;14.57;;;10.52;;
23747;SDS011;12054;53.662;10.126;2023-03-23T01:08:20;14.27;;;10.65;;
23747;SDS011;12054;53.662;10.126;2023-03-23T01:10:46;14.40;;;10.23;;
23747;SDS011;12054;53.662;10.126;2023-03-23T01:13:12;15.70;;;10.68;;
23747;SDS011;12054;53.662;10.126;2023-03-23T01:15:38;17.67;;;10.30;;
23747;SDS011;12054;53.662;10.126;2023-03-23T01:18:04;13.25;;;9.65;;
23747;SDS011;12054;53.662;10.126;2023-03-23T01:20:30;14.90;;;9.50;;
23747;SDS011;12054;53.662;10.126;2023-03-23T01:22:57;13.82;;;9.63;;
23747;SDS011;12054;53.662;10.126;2023-03-23T01:25:26;15.00;;;9.60;;
23747;SDS011;12054;53.662;10.126;2023-03-23T01:27:53;15.23;;;10.32;;
23747;SDS011;12054;53.662;10.126;2023-03-23T01:30:19;14.70;;;9.45;;
23747;SDS011;12054;53.662;10.126;2023-03-23T01:32:44;16.58;;;9.27;;
23747;SDS011;12054;53.662;10.126;2023-03-23T01:35:11;15.70;;;9.88;;
23747;SDS011;12054;53.662;10.126;2023-03-23T01:37:37;15.50;;;11.25;;
23747;SDS011;12054;53.662;10.126;2023-03-23T01:40:03;14.35;;;9.80;;
23747;SDS011;12054;53.662;10.126;2023-03-23T01:42:30;15.90;;;10.43;;
23747;SDS011;12054;53.662;10.126;2023-03-23T01:50:31;14.50;;;9.98;;
23747;SDS011;12054;53.662;10.126;2023-03-23T01:53:09;15.45;;;9.40;;
23747;SDS011;12054;53.662;10.126;2023-03-23T01:55:37;17.15;;;11.85;;
23747;SDS011;12054;53.662;10.126;2023-03-23T01:58:06;19.75;;;11.25;;
23747;SDS011;12054;53.662;10.126;2023-03-23T02:00:33;18.08;;;11.65;;
23747;SDS011;12054;53.662;10.126;2023-03-23T02:02:59;16.52;;;10.98;;
23747;SDS011;12054;53.662;10.126;2023-03-23T02:05:30;16.92;;;11.82;;
23747;SDS011;12054;53.662;10.126;2023-03-23T02:07:59;16.50;;;10.90;;
23747;SDS011;12054;53.662;10.126;2023-03-23T02:10:28;20.02;;;12.45;;
23747;SDS011;12054;53.662;10.126;2023-03-23T02:12:55;18.27;;;12.48;;
23747;SDS011;12054;53.662;10.126;2023-03-23T02:15:20;18.58;;;13.18;;
23747;SDS011;12054;53.662;10.126;2023-03-23T02:17:56;20.48;;;13.23;;
23747;SDS011;12054;53.662;10.126;2023-03-23T02:20:33;22.88;;;13.80;;
23747;SDS011;12054;53.662;10.126;2023-03-23T02:29:16;19.27;;;12.23;;
23747;SDS011;12054;53.662;10.126;2023-03-23T02:31:51;18.08;;;11.77;;
23747;SDS011;12054;53.662;10.126;2023-03-23T02:34:19;19.70;;;12.25;;
23747;SDS011;12054;53.662;10.126;2023-03-23T02:37:00;18.73;;;12.05;;
23747;SDS011;12054;53.662;10.126;2023-03-23T02:42:20;17.13;;;11.32;;
23747;SDS011;12054;53.662;10.126;2023-03-23T02:44:51;18.60;;;11.65;;
23747;SDS011;12054;53.662;10.126;2023-03-23T02:47:20;16.92;;;11.15;;
23747;SDS011;12054;53.662;10.126;2023-03-23T02:49:50;20.25;;;12.30;;
23747;SDS011;12054;53.662;10.126;2023-03-23T02:52:19;16.55;;;11.63;;
23747;SDS011;12054;53.662;10.126;2023-03-23T02:54:51;16.27;;;11.05;;
23747;SDS011;12054;53.662;10.126;2023-03-23T02:57:19;15.88;;;11.02;;
23747;SDS011;12054;53.662;10.126;2023-03-23T02:59:46;15.73;;;10.50;;
23747;SDS011;12054;53.662;10.126;2023-03-23T03:02:22;14.48;;;10.73;;
23747;SDS011;12054;53.662;10.126;2023-03-23T03:04:56;13.73;;;10.38;;
23747;SDS011;12054;53.662;10.126;2023-03-23T03:10:16;13.60;;;9.07;;
23747;SDS011;12054;53.662;10.126;2023-03-23T03:13:04;15.52;;;9.77;;
23747;SDS011;12054;53.662;10.126;2023-03-23T03:15:43;13.77;;;9.43;;
23747;SDS011;12054;53.662;10.126;2023-03-23T03:20:44;14.77;;;9.95;;
23747;SDS011;12054;53.662;10.126;2023-03-23T03:23:12;11.55;;;9.10;;
23747;SDS011;12054;53.662;10.126;2023-03-23T03:25:40;14.85;;;10.05;;
23747;SDS011;12054;53.662;10.126;2023-03-23T03:28:12;12.68;;;10.30;;
23747;SDS011;12054;53.662;10.126;2023-03-23T03:30:51;11.68;;;8.77;;
23747;SDS011;12054;53.662;10.126;2023-03-23T03:33:22;13.88;;;10.23;;
23747;SDS011;12054;53.662;10.126;2023-03-23T03:35:50;14.02;;;10.48;;
23747;SDS011;12054;53.662;10.126;2023-03-23T03:38:20;15.13;;;10.85;;
23747;SDS011;12054;53.662;10.126;2023-03-23T03:40:46;14.43;;;11.38;;
23747;SDS011;12054;53.662;10.126;2023-03-23T03:43:14;15.45;;;10.75;;
23747;SDS011;12054;53.662;10.126;2023-03-23T03:45:40;14.52;;;10.45;;
23747;SDS011;12054;53.662;10.126;2023-03-23T03:48:06;15.65;;;10.10;;
23747;SDS011;12054;53.662;10.126;2023-03-23T03:50:32;14.20;;;10.10;;
23747;SDS011;12054;53.662;10.126;2023-03-23T03:52:58;14.95;;;11.50;;
23747;SDS011;12054;53.662;10.126;2023-03-23T03:55:23;15.38;;;10.85;;
23747;SDS011;12054;53.662;10.126;2023-03-23T03:57:50;16.08;;;10.95;;
23747;SDS011;12054;53.662;10.126;2023-03-23T04:00:15;14.85;;;11.27;;
23747;SDS011;12054;53.662;10.126;2023-03-23T04:02:42;16.38;;;11.65;;
23747;SDS011;12054;53.662;10.126;2023-03-23T04:05:20;15.70;;;11.07;;
23747;SDS011;12054;53.662;10.126;2023-03-23T04:07:47;14.45;;;11.25;;
23747;SDS011;12054;53.662;10.126;2023-03-23T04:10:17;16.02;;;11.60;;
23747;SDS011;12054;53.662;10.126;2023-03-23T04:12:48;14.77;;;11.65;;
23747;SDS011;12054;53.662;10.126;2023-03-23T04:15:14;15.10;;;12.25;;
23747;SDS011;12054;53.662;10.126;2023-03-23T04:17:40;15.90;;;11.23;;
23747;SDS011;12054;53.662;10.126;2023-03-23T04:20:06;15.25;;;11.63;;
23747;SDS011;12054;53.662;10.126;2023-03-23T04:22:37;15.15;;;11.52;;
23747;SDS011;12054;53.662;10.126;2023-03-23T04:25:03;16.50;;;12.45;;
23747;SDS011;12054;53.662;10.126;2023-03-23T04:27:31;17.60;;;11.05;;
23747;SDS011;12054;53.662;10.126;2023-03-23T04:29:57;16.40;;;12.07;;
23747;SDS011;12054;53.662;10.126;2023-03-23T04:32:26;16.35;;;12.45;;
23747;SDS011;12054;53.662;10.126;2023-03-23T04:34:53;17.27;;;12.13;;
23747;SDS011;12054;53.662;10.126;2023-03-23T04:37:24;16.60;;;11.93;;
23747;SDS011;12054;53.662;10.126;2023-03-23T04:39:52;15.85;;;13.05;;
23747;SDS011;12054;53.662;10.126;2023-03-23T04:42:25;20.52;;;13.07;;
23747;SDS011;12054;53.662;10.126;2023-03-23T04:44:51;16.67;;;13.23;;
23747;SDS011;12054;53.662;10.126;2023-03-23T04:47:20;18.60;;;12.85;;
23747;SDS011;12054;53.662;10.126;2023-03-23T04:49:45;18.85;;;12.57;;
23747;SDS011;12054;53.662;10.126;2023-03-23T04:52:14;16.17;;;12.02;;
23747;SDS011;12054;53.662;10.126;2023-03-23T04:54:40;17.08;;;12.15;;
23747;SDS011;12054;53.662;10.126;2023-03-23T04:57:05;16.25;;;12.18;;
23747;SDS011;12054;53.662;10.126;2023-03-23T04:59:33;16.17;;;11.52;;
23747;SDS011;12054;53.662;10.126;2023-03-23T05:01:58;14.18;;;11.00;;
23747;SDS011;12054;53.662;10.126;2023-03-23T05:04:24;14.85;;;11.73;;
23747;SDS011;12054;53.662;10.126;2023-03-23T05:06:50;15.80;;;11.50;;
23747;SDS011;12054;53.662;10.126;2023-03-23T05:09:16;13.93;;;10.98;;
23747;SDS011;12054;53.662;10.126;2023-03-23T05:11:42;15.45;;;11.07;;
23747;SDS011;12054;53.662;10.126;2023-03-23T05:14:07;16.08;;;11.45;;
23747;SDS011;12054;53.662;10.126;2023-03-23T05:16:33;15.10;;;10.45;;
23747;SDS011;12054;53.662;10.126;2023-03-23T05:19:02;18.92;;;12.20;;
23747;SDS011;12054;53.662;10.126;2023-03-23T05:21:29;14.48;;;10.63;;
23747;SDS011;12054;53.662;10.126;2023-03-23T05:23:55;14.27;;;11.13;;
23747;SDS011;12054;53.662;10.126;2023-03-23T05:26:21;13.88;;;10.70;;
23747;SDS011;12054;53.662;10.126;2023-03-23T05:28:47;14.43;;;12.20;;
23747;SDS011;12054;53.662;10.126;2023-03-23T05:31:14;15.73;;;11.70;;
23747;SDS011;12054;53.662;10.126;2023-03-23T05:33:39;13.85;;;11.25;;
23747;SDS011;12054;53.662;10.126;2023-03-23T05:36:05;15.80;;;11.85;;
23747;SDS011;12054;53.662;10.126;2023-03-23T05:38:35;13.93;;;11.30;;
23747;SDS011;12054;53.662;10.126;2023-03-23T05:41:04;16.38;;;12.15;;
23747;SDS011;12054;53.662;10.126;2023-03-23T05:43:29;14.07;;;12.20;;
23747;SDS011;12054;53.662;10.126;2023-03-23T05:45:55;15.85;;;12.20;;
23747;SDS011;12054;53.662;10.126;2023-03-23T05:48:21;15.65;;;11.60;;
23747;SDS011;12054;53.662;10.126;2023-03-23T05:50:47;15.82;;;10.93;;
23747;SDS011;12054;53.662;10.126;2023-03-23T05:53:13;16.88;;;11.25;;
23747;SDS011;12054;53.662;10.126;2023-03-23T05:55:38;12.93;;;10.43;;
23747;SDS011;12054;53.662;10.126;2023-03-23T05:58:04;15.00;;;10.75;;
23747;SDS011;12054;53.662;10.126;2023-03-23T06:00:30;16.95;;;10.68;;
23747;SDS011;12054;53.662;10.126;2023-03-23T06:02:56;14.75;;;9.68;;
23747;SDS011;12054;53.662;10.126;2023-03-23T06:05:22;14.75;;;10.18;;
23747;SDS011;12054;53.662;10.126;2023-03-23T06:07:48;16.60;;;9.38;;
23747;SDS011;12054;53.662;10.126;2023-03-23T06:10:14;15.00;;;9.02;;
23747;SDS011;12054;53.662;10.126;2023-03-23T06:12:40;14.65;;;8.82;;
23747;SDS011;12054;53.662;10.126;2023-03-23T06:15:06;12.50;;;7.65;;
23747;SDS011;12054;53.662;10.126;2023-03-23T06:17:33;12.95;;;8.27;;
23747;SDS011;12054;53.662;10.126;2023-03-23T06:20:01;11.02;;;7.78;;
23747;SDS011;12054;53.662;10.126;2023-03-23T06:22:30;10.07;;;7.70;;
23747;SDS011;12054;53.662;10.126;2023-03-23T06:24:55;13.60;;;7.53;;
23747;SDS011;12054;53.662;10.126;2023-03-23T06:27:24;9.05;;;7.18;;
23747;SDS011;12054;53.662;10.126;2023-03-23T06:29:49;9.25;;;6.85;;
23747;SDS011;12054;53.662;10.126;2023-03-23T06:32:15;9.70;;;6.35;;
23747;SDS011;12054;53.662;10.126;2023-03-23T06:34:40;9.25;;;6.75;;
23747;SDS011;12054;53.662;10.126;2023-03-23T06:37:09;9.35;;;6.40;;
23747;SDS011;12054;53.662;10.126;2023-03-23T06:39:35;8.82;;;6.40;;
23747;SDS011;12054;53.662;10.126;2023-03-23T06:42:03;10.48;;;6.55;;
23747;SDS011;12054;53.662;10.126;2023-03-23T06:44:28;8.45;;;6.68;;
23747;SDS011;12054;53.662;10.126;2023-03-23T06:46:54;10.95;;;6.57;;
23747;SDS011;12054;53.662;10.126;2023-03-23T06:49:19;10.13;;;6.45;;
23747;SDS011;12054;53.662;10.126;2023-03-23T06:51:45;8.80;;;6.32;;
23747;SDS011;12054;53.662;10.126;2023-03-23T06:54:12;6.90;;;5.35;;
23747;SDS011;12054;53.662;10.126;2023-03-23T06:56:38;7.35;;;5.50;;
23747;SDS011;12054;53.662;10.126;2023-03-23T06:59:04;7.32;;;5.75;;
23747;SDS011;12054;53.662;10.126;2023-03-23T07:01:29;7.55;;;5.15;;
23747;SDS011;12054;53.662;10.126;2023-03-23T07:03:55;7.70;;;5.85;;
23747;SDS011;12054;53.662;10.126;2023-03-23T07:06:23;9.32;;;5.88;;
23747;SDS011;12054;53.662;10.126;2023-03-23T07:08:50;8.10;;;6.07;;
23747;SDS011;12054;53.662;10.126;2023-03-23T07:11:15;8.43;;;6.03;;
23747;SDS011;12054;53.662;10.126;2023-03-23T07:13:41;8.13;;;5.60;;
23747;SDS011;12054;53.662;10.126;2023-03-23T07:16:06;8.15;;;6.05;;
23747;SDS011;12054;53.662;10.126;2023-03-23T07:18:32;7.78;;;5.45;;
23747;SDS011;12054;53.662;10.126;2023-03-23T07:20:58;6.65;;;5.15;;
23747;SDS011;12054;53.662;10.126;2023-03-23T07:23:28;7.05;;;5.07;;
23747;SDS011;12054;53.662;10.126;2023-03-23T07:25:54;8.00;;;5.32;;
23747;SDS011;12054;53.662;10.126;2023-03-23T07:28:20;6.50;;;4.93;;
23747;SDS011;12054;53.662;10.126;2023-03-23T07:30:46;9.73;;;4.70;;
23747;SDS011;12054;53.662;10.126;2023-03-23T07:33:11;6.50;;;4.70;;
23747;SDS011;12054;53.662;10.126;2023-03-23T07:35:37;6.18;;;4.55;;
23747;SDS011;12054;53.662;10.126;2023-03-23T07:38:04;8.23;;;5.10;;
23747;SDS011;12054;53.662;10.126;2023-03-23T07:40:31;7.38;;;4.72;;
23747;SDS011;12054;53.662;10.126;2023-03-23T07:43:00;6.25;;;4.65;;
23747;SDS011;12054;53.662;10.126;2023-03-23T07:45:27;6.45;;;4.40;;
23747;SDS011;12054;53.662;10.126;2023-03-23T07:47:54;7.22;;;4.95;;
23747;SDS011;12054;53.662;10.126;2023-03-23T07:50:20;6.07;;;4.95;;
23747;SDS011;12054;53.662;10.126;2023-03-23T07:52:49;7.85;;;4.70;;
23747;SDS011;12054;53.662;10.126;2023-03-23T07:55:15;7.85;;;4.97;;
23747;SDS011;12054;53.662;10.126;2023-03-23T07:57:45;7.18;;;4.70;;
23747;SDS011;12054;53.662;10.126;2023-03-23T08:00:12;7.78;;;5.40;;
23747;SDS011;12054;53.662;10.126;2023-03-23T08:02:44;8.48;;;5.78;;
23747;SDS011;12054;53.662;10.126;2023-03-23T08:05:11;9.07;;;5.70;;
23747;SDS011;12054;53.662;10.126;2023-03-23T08:07:38;7.72;;;5.63;;
23747;SDS011;12054;53.662;10.126;2023-03-23T08:10:05;10.77;;;6.70;;
23747;SDS011;12054;53.662;10.126;2023-03-23T08:12:35;12.13;;;6.50;;
23747;SDS011;12054;53.662;10.126;2023-03-23T08:15:01;8.00;;;2.78;;
23747;SDS011;12054;53.662;10.126;2023-03-23T08:17:28;4.38;;;2.22;;
23747;SDS011;12054;53.662;10.126;2023-03-23T08:19:53;2.97;;;1.35;;
23747;SDS011;12054;53.662;10.126;2023-03-23T08:22:19;3.20;;;1.00;;
23747;SDS011;12054;53.662;10.126;2023-03-23T08:24:46;2.75;;;1.33;;
23747;SDS011;12054;53.662;10.126;2023-03-23T08:27:15;2.13;;;0.95;;
23747;SDS011;12054;53.662;10.126;2023-03-23T08:29:40;3.10;;;1.02;;
23747;SDS011;12054;53.662;10.126;2023-03-23T08:32:06;2.90;;;1.05;;
23747;SDS011;12054;53.662;10.126;2023-03-23T08:34:32;2.40;;;0.90;;
23747;SDS011;12054;53.662;10.126;2023-03-23T08:36:57;1.42;;;0.82;;
23747;SDS011;12054;53.662;10.126;2023-03-23T08:39:23;1.98;;;0.90;;
23747;SDS011;12054;53.662;10.126;2023-03-23T08:41:50;1.98;;;0.80;;
23747;SDS011;12054;53.662;10.126;2023-03-23T08:46:49;1.70;;;1.00;;
23747;SDS011;12054;53.662;10.126;2023-03-23T08:49:22;2.88;;;1.45;;
23747;SDS011;12054;53.662;10.126;2023-03-23T08:51:50;4.50;;;1.48;;
23747;SDS011;12054;53.662;10.126;2023-03-23T08:54:16;3.75;;;1.70;;
23747;SDS011;12054;53.662;10.126;2023-03-23T08:56:42;5.82;;;1.92;;
23747;SDS011;12054;53.662;10.126;2023-03-23T08:59:08;3.88;;;1.95;;
23747;SDS011;12054;53.662;10.126;2023-03-23T09:01:35;3.75;;;2.10;;
23747;SDS011;12054;53.662;10.126;2023-03-23T09:04:00;4.22;;;2.25;;
23747;SDS011;12054;53.662;10.126;2023-03-23T09:06:26;5.15;;;2.90;;
23747;SDS011;12054;53.662;10.126;2023-03-23T09:08:52;2.47;;;2.22;;
23747;SDS011;12054;53.662;10.126;2023-03-23T09:11:20;4.65;;;2.20;;
23747;SDS011;12054;53.662;10.126;2023-03-23T09:13:46;5.55;;;2.10;;
23747;SDS011;12054;53.662;10.126;2023-03-23T09:16:11;3.53;;;2.30;;
23747;SDS011;12054;53.662;10.126;2023-03-23T09:18:37;6.35;;;2.60;;
23747;SDS011;12054;53.662;10.126;2023-03-23T09:21:03;5.30;;;2.80;;
23747;SDS011;12054;53.662;10.126;2023-03-23T09:23:29;8.10;;;3.63;;
23747;SDS011;12054;53.662;10.126;2023-03-23T09:25:55;4.20;;;2.80;;
23747;SDS011;12054;53.662;10.126;2023-03-23T09:28:21;10.02;;;3.00;;
23747;SDS011;12054;53.662;10.126;2023-03-23T09:30:46;5.80;;;2.88;;
23747;SDS011;12054;53.662;10.126;2023-03-23T09:33:12;6.15;;;2.90;;
23747;SDS011;12054;53.662;10.126;2023-03-23T09:35:38;7.72;;;2.50;;
23747;SDS011;12054;53.662;10.126;2023-03-23T09:38:06;6.90;;;2.65;;
23747;SDS011;12054;53.662;10.126;2023-03-23T09:46:13;4.95;;;2.20;;
23747;SDS011;12054;53.662;10.126;2023-03-23T09:49:00;6.53;;;2.33;;
23747;SDS011;12054;53.662;10.126;2023-03-23T09:51:38;6.18;;;2.08;;
23747;SDS011;12054;53.662;10.126;2023-03-23T09:54:35;7.57;;;2.42;;
23747;SDS011;12054;53.662;10.126;2023-03-23T09:57:01;7.05;;;2.83;;
23747;SDS011;12054;53.662;10.126;2023-03-23T09:59:34;7.90;;;2.33;;
23747;SDS011;12054;53.662;10.126;2023-03-23T10:02:22;7.05;;;2.17;;
23747;SDS011;12054;53.662;10.126;2023-03-23T10:04:54;7.20;;;1.88;;
23747;SDS011;12054;53.662;10.126;2023-03-23T10:07:23;8.63;;;2.60;;
23747;SDS011;12054;53.662;10.126;2023-03-23T10:09:55;5.10;;;2.00;;
23747;SDS011;12054;53.662;10.126;2023-03-23T10:20:23;9.25;;;1.80;;
23747;SDS011;12054;53.662;10.126;2023-03-23T10:23:12;6.18;;;1.90;;
23747;SDS011;12054;53.662;10.126;2023-03-23T10:28:36;8.27;;;2.85;;
23747;SDS011;12054;53.662;10.126;2023-03-23T10:31:04;4.53;;;1.63;;
23747;SDS011;12054;53.662;10.126;2023-03-23T10:33:38;6.30;;;2.20;;
23747;SDS011;12054;53.662;10.126;2023-03-23T10:36:27;14.63;;;2.67;;
23747;SDS011;12054;53.662;10.126;2023-03-23T10:41:39;8.85;;;2.03;;
23747;SDS011;12054;53.662;10.126;2023-03-23T10:44:14;7.85;;;1.88;;
23747;SDS011;12054;53.662;10.126;2023-03-23T10:49:23;5.13;;;1.70;;
23747;SDS011;12054;53.662;10.126;2023-03-23T10:52:03;5.85;;;1.80;;
23747;SDS011;12054;53.662;10.126;2023-03-23T10:54:39;7.78;;;2.28;;
23747;SDS011;12054;53.662;10.126;2023-03-23T10:57:20;7.70;;;1.85;;
23747;SDS011;12054;53.662;10.126;2023-03-23T10:59:57;10.07;;;2.10;;
23747;SDS011;12054;53.662;10.126;2023-03-23T11:02:26;14.18;;;1.73;;
23747;SDS011;12054;53.662;10.126;2023-03-23T11:04:57;6.25;;;1.67;;
23747;SDS011;12054;53.662;10.126;2023-03-23T11:07:29;11.90;;;2.55;;
23747;SDS011;12054;53.662;10.126;2023-03-23T11:09:59;6.40;;;2.17;;
23747;SDS011;12054;53.662;10.126;2023-03-23T11:12:33;9.50;;;2.25;;
23747;SDS011;12054;53.662;10.126;2023-03-23T11:17:55;8.85;;;2.08;;
23747;SDS011;12054;53.662;10.126;2023-03-23T11:20:23;7.40;;;1.85;;
23747;SDS011;12054;53.662;10.126;2023-03-23T11:22:49;7.88;;;2.00;;
23747;SDS011;12054;53.662;10.126;2023-03-23T11:25:15;5.63;;;1.95;;
23747;SDS011;12054;53.662;10.126;2023-03-23T11:27:41;5.82;;;1.88;;
23747;SDS011;12054;53.662;10.126;2023-03-23T11:30:18;7.40;;;2.05;;
23747;SDS011;12054;53.662;10.126;2023-03-23T11:32:50;7.45;;;1.95;;
23747;SDS011;12054;53.662;10.126;2023-03-23T11:35:19;8.35;;;2.28;;
23747;SDS011;12054;53.662;10.126;2023-03-23T11:37:48;6.68;;;1.60;;
23747;SDS011;12054;53.662;10.126;2023-03-23T11:40:25;14.00;;;3.83;;
23747;SDS011;12054;53.662;10.126;2023-03-23T11:43:12;10.77;;;1.90;;
23747;SDS011;12054;53.662;10.126;2023-03-23T11:45:41;10.23;;;2.30;;
23747;SDS011;12054;53.662;10.126;2023-03-23T11:48:17;7.85;;;2.00;;
23747;SDS011;12054;53.662;10.126;2023-03-23T11:50:51;7.05;;;2.00;;
23747;SDS011;12054;53.662;10.126;2023-03-23T11:56:11;9.77;;;2.10;;
23747;SDS011;12054;53.662;10.126;2023-03-23T11:58:41;9.35;;;2.33;;
23747;SDS011;12054;53.662;10.126;2023-03-23T12:01:17;12.38;;;2.08;;
23747;SDS011;12054;53.662;10.126;2023-03-23T12:04:18;9.23;;;2.00;;
23747;SDS011;12054;53.662;10.126;2023-03-23T12:09:30;10.13;;;1.90;;
23747;SDS011;12054;53.662;10.126;2023-03-23T12:12:21;9.15;;;2.40;;
23747;SDS011;12054;53.662;10.126;2023-03-23T12:21:16;10.85;;;2.50;;
23747;SDS011;12054;53.662;10.126;2023-03-23T12:24:16;11.05;;;3.17;;
23747;SDS011;12054;53.662;10.126;2023-03-23T12:27:18;8.43;;;2.67;;
23747;SDS011;12054;53.662;10.126;2023-03-23T12:30:01;6.85;;;2.65;;
23747;SDS011;12054;53.662;10.126;2023-03-23T12:35:03;8.70;;;2.63;;
23747;SDS011;12054;53.662;10.126;2023-03-23T12:40:29;13.38;;;3.05;;
23747;SDS011;12054;53.662;10.126;2023-03-23T12:43:26;7.85;;;3.08;;
23747;SDS011;12054;53.662;10.126;2023-03-23T12:46:08;9.35;;;2.95;;
23747;SDS011;12054;53.662;10.126;2023-03-23T12:48:52;6.43;;;2.80;;
23747;SDS011;12054;53.662;10.126;2023-03-23T12:54:19;4.90;;;2.65;;
23747;SDS011;12054;53.662;10.126;2023-03-23T12:57:14;8.18;;;3.05;;
23747;SDS011;12054;53.662;10.126;2023-03-23T13:00:01;11.40;;;3.45;;
23747;SDS011;12054;53.662;10.126;2023-03-23T13:03:09;9.75;;;3.78;;
23747;SDS011;12054;53.662;10.126;2023-03-23T13:05:53;8.05;;;3.55;;
23747;SDS011;12054;53.662;10.126;2023-03-23T13:08:42;6.47;;;3.33;;
23747;SDS011;12054;53.662;10.126;2023-03-23T13:11:15;8.30;;;3.58;;
23747;SDS011;12054;53.662;10.126;2023-03-23T13:13:49;7.93;;;3.65;;
23747;SDS011;12054;53.662;10.126;2023-03-23T13:16:31;7.95;;;3.30;;
23747;SDS011;12054;53.662;10.126;2023-03-23T13:19:17;9.52;;;3.67;;
23747;SDS011;12054;53.662;10.126;2023-03-23T13:22:15;9.48;;;3.40;;
23747;SDS011;12054;53.662;10.126;2023-03-23T13:24:55;10.15;;;3.50;;
23747;SDS011;12054;53.662;10.126;2023-03-23T13:27:25;8.70;;;3.28;;
23747;SDS011;12054;53.662;10.126;2023-03-23T13:29:53;9.10;;;4.03;;
23747;SDS011;12054;53.662;10.126;2023-03-23T13:32:20;8.52;;;3.47;;
23747;SDS011;12054;53.662;10.126;2023-03-23T13:34:48;8.30;;;3.33;;
23747;SDS011;12054;53.662;10.126;2023-03-23T13:37:26;7.10;;;3.22;;
23747;SDS011;12054;53.662;10.126;2023-03-23T13:39:54;9.93;;;3.55;;
23747;SDS011;12054;53.662;10.126;2023-03-23T13:42:24;9.30;;;3.33;;
23747;SDS011;12054;53.662;10.126;2023-03-23T13:55:16;7.55;;;2.50;;
23747;SDS011;12054;53.662;10.126;2023-03-23T13:57:49;7.75;;;2.55;;
23747;SDS011;12054;53.662;10.126;2023-03-23T14:13:09;2.70;;;0.80;;
23747;SDS011;12054;53.662;10.126;2023-03-23T14:15:54;3.05;;;1.10;;
23747;SDS011;12054;53.662;10.126;2023-03-23T14:18:27;3.00;;;1.20;;
23747;SDS011;12054;53.662;10.126;2023-03-23T14:21:02;2.80;;;1.63;;
23747;SDS011;12054;53.662;10.126;2023-03-23T14:23:30;3.08;;;1.65;;
23747;SDS011;12054;53.662;10.126;2023-03-23T14:26:01;4.75;;;1.20;;
23747;SDS011;12054;53.662;10.126;2023-03-23T14:28:37;2.90;;;1.20;;
23747;SDS011;12054;53.662;10.126;2023-03-23T14:31:05;2.92;;;1.20;;
23747;SDS011;12054;53.662;10.126;2023-03-23T14:33:39;3.15;;;1.45;;
23747;SDS011;12054;53.662;10.126;2023-03-23T14:36:06;3.67;;;1.40;;
23747;SDS011;12054;53.662;10.126;2023-03-23T14:38:32;2.90;;;1.58;;
23747;SDS011;12054;53.662;10.126;2023-03-23T14:41:02;2.70;;;1.42;;
23747;SDS011;12054;53.662;10.126;2023-03-23T14:43:29;5.05;;;1.70;;
23747;SDS011;12054;53.662;10.126;2023-03-23T14:45:58;4.43;;;1.70;;
23747;SDS011;12054;53.662;10.126;2023-03-23T14:48:26;2.88;;;1.40;;
23747;SDS011;12054;53.662;10.126;2023-03-23T14:50:57;4.43;;;1.80;;
23747;SDS011;12054;53.662;10.126;2023-03-23T14:53:37;4.20;;;1.52;;
23747;SDS011;12054;53.662;10.126;2023-03-23T14:56:13;5.00;;;1.77;;
23747;SDS011;12054;53.662;10.126;2023-03-23T14:58:44;5.75;;;1.98;;
23747;SDS011;12054;53.662;10.126;2023-03-23T15:01:12;4.90;;;1.70;;
23747;SDS011;12054;53.662;10.126;2023-03-23T15:03:52;4.93;;;1.95;;
23747;SDS011;12054;53.662;10.126;2023-03-23T15:06:36;3.60;;;1.55;;
23747;SDS011;12054;53.662;10.126;2023-03-23T15:09:07;5.38;;;1.42;;
23747;SDS011;12054;53.662;10.126;2023-03-23T15:11:40;4.20;;;1.60;;
23747;SDS011;12054;53.662;10.126;2023-03-23T15:14:08;6.15;;;1.65;;
23747;SDS011;12054;53.662;10.126;2023-03-23T15:16:39;4.13;;;1.30;;
23747;SDS011;12054;53.662;10.126;2023-03-23T15:19:11;5.40;;;1.90;;
23747;SDS011;12054;53.662;10.126;2023-03-23T15:21:46;4.88;;;1.83;;
23747;SDS011;12054;53.662;10.126;2023-03-23T15:24:24;6.00;;;2.00;;
23747;SDS011;12054;53.662;10.126;2023-03-23T15:27:04;3.28;;;1.83;;
23747;SDS011;12054;53.662;10.126;2023-03-23T15:29:50;5.43;;;1.98;;
23747;SDS011;12054;53.662;10.126;2023-03-23T15:32:28;5.28;;;2.10;;
23747;SDS011;12054;53.662;10.126;2023-03-23T15:35:12;6.43;;;2.30;;
23747;SDS011;12054;53.662;10.126;2023-03-23T15:37:43;4.38;;;1.95;;
23747;SDS011;12054;53.662;10.126;2023-03-23T15:40:36;6.57;;;2.60;;
23747;SDS011;12054;53.662;10.126;2023-03-23T15:43:08;4.10;;;1.77;;
23747;SDS011;12054;53.662;10.126;2023-03-23T15:45:50;6.55;;;1.98;;
23747;SDS011;12054;53.662;10.126;2023-03-23T15:48:32;5.22;;;2.20;;
23747;SDS011;12054;53.662;10.126;2023-03-23T15:51:12;6.18;;;2.20;;
23747;SDS011;12054;53.662;10.126;2023-03-23T15:53:39;4.22;;;2.03;;
23747;SDS011;12054;53.662;10.126;2023-03-23T15:56:06;6.47;;;2.35;;
23747;SDS011;12054;53.662;10.126;2023-03-23T15:58:35;5.10;;;2.40;;
23747;SDS011;12054;53.662;10.126;2023-03-23T16:01:03;6.45;;;2.67;;
23747;SDS011;12054;53.662;10.126;2023-03-23T16:03:51;5.35;;;2.30;;
23747;SDS011;12054;53.662;10.126;2023-03-23T16:06:19;5.93;;;2.60;;
23747;SDS011;12054;53.662;10.126;2023-03-23T16:08:46;4.20;;;2.58;;
23747;SDS011;12054;53.662;10.126;2023-03-23T16:11:13;5.50;;;2.60;;
23747;SDS011;12054;53.662;10.126;2023-03-23T16:13:41;5.32;;;2.65;;
23747;SDS011;12054;53.662;10.126;2023-03-23T16:16:12;5.70;;;2.80;;